sensor_id;sensor_type;location;lat;lon;timestamp;P1;durP1;ratioP1;P2;durP2;ratioP2
14520;SDS011;7347;50.844;4.490;2023-04-24T07:20:28;13.13;;;5.73;;
14520;SDS011;7347;50.844;4.490;2023-04-24T07:22:56;11.30;;;5.20;;
14520;SDS011;7347;50.844;4.490;2023-04-24T07:25:23;11.70;;;5.23;;
14520;SDS011;7347;50.844;4.490;2023-04-24T07:27:50;12.17;;;6.00;;
14520;SDS011;7347;50.844;4.490;2023-04-24T07:30:17;10.23;;;5.50;;
14520;SDS011;7347;50.844;4.490;2023-04-24T07:32:44;9.30;;;5.07;;
14520;SDS011;7347;50.844;4.490;2023-04-24T07:35:10;13.13;;;4.97;;
14520;SDS011;7347;50.844;4.490;2023-04-24T07:37:39;10.27;;;4.90;;
14520;SDS011;7347;50.844;4.490;2023-04-24T07:40:10;12.13;;;4.73;;
14520;SDS011;7347;50.844;4.490;2023-04-24T07:42:38;8.47;;;4.67;;
14520;SDS011;7347;50.844;4.490;2023-04-24T07:45:05;10.10;;;4.33;;
14520;SDS011;7347;50.844;4.490;2023-04-24T07:47:32;7.80;;;4.07;;
14520;SDS011;7347;50.844;4.490;2023-04-24T07:50:00;8.67;;;4.13;;
14520;SDS011;7347;50.844;4.490;2023-04-24T07:52:27;11.03;;;3.57;;
14520;SDS011;7347;50.844;4.490;2023-04-24T07:54:55;6.33;;;3.37;;
14520;SDS011;7347;50.844;4.490;2023-04-24T07:57:25;8.63;;;3.30;;
14520;SDS011;7347;50.844;4.490;2023-04-24T07:59:52;9.17;;;3.30;;
14520;SDS011;7347;50.844;4.490;2023-04-24T08:02:19;10.50;;;3.23;;
14520;SDS011;7347;50.844;4.490;2023-04-24T08:04:51;5.40;;;3.13;;
14520;SDS011;7347;50.844;4.490;2023-04-24T08:07:18;6.77;;;3.30;;
14520;SDS011;7347;50.844;4.490;2023-04-24T08:09:45;7.33;;;3.13;;
14520;SDS011;7347;50.844;4.490;2023-04-24T08:12:13;8.20;;;3.63;;
14520;SDS011;7347;50.844;4.490;2023-04-24T08:14:40;7.87;;;3.20;;
14520;SDS011;7347;50.844;4.490;2023-04-24T08:17:07;7.00;;;3.43;;
14520;SDS011;7347;50.844;4.490;2023-04-24T08:19:34;6.77;;;3.17;;
14520;SDS011;7347;50.844;4.490;2023-04-24T08:22:00;8.00;;;3.20;;
14520;SDS011;7347;50.844;4.490;2023-04-24T08:24:29;10.07;;;4.03;;
14520;SDS011;7347;50.844;4.490;2023-04-24T08:26:56;8.93;;;3.47;;
14520;SDS011;7347;50.844;4.490;2023-04-24T08:29:24;5.27;;;3.07;;
14520;SDS011;7347;50.844;4.490;2023-04-24T08:31:51;7.03;;;2.90;;
14520;SDS011;7347;50.844;4.490;2023-04-24T08:34:20;4.17;;;2.47;;
14520;SDS011;7347;50.844;4.490;2023-04-24T08:36:47;4.30;;;2.30;;
14520;SDS011;7347;50.844;4.490;2023-04-24T08:39:14;7.33;;;2.10;;
14520;SDS011;7347;50.844;4.490;2023-04-24T08:41:41;4.23;;;2.00;;
14520;SDS011;7347;50.844;4.490;2023-04-24T08:44:10;7.27;;;2.43;;
14520;SDS011;7347;50.844;4.490;2023-04-24T08:46:40;6.37;;;2.23;;
14520;SDS011;7347;50.844;4.490;2023-04-24T08:49:09;4.73;;;2.10;;
14520;SDS011;7347;50.844;4.490;2023-04-24T08:51:36;4.67;;;2.13;;
14520;SDS011;7347;50.844;4.490;2023-04-24T08:54:04;3.33;;;2.00;;
14520;SDS011;7347;50.844;4.490;2023-04-24T08:56:32;4.80;;;1.90;;
14520;SDS011;7347;50.844;4.490;2023-04-24T08:59:02;5.23;;;1.90;;
14520;SDS011;7347;50.844;4.490;2023-04-24T09:01:32;5.93;;;2.50;;
14520;SDS011;7347;50.844;4.490;2023-04-24T09:04:01;3.87;;;1.93;;
14520;SDS011;7347;50.844;4.490;2023-04-24T09:06:29;2.43;;;1.73;;
14520;SDS011;7347;50.844;4.490;2023-04-24T09:08:57;5.83;;;1.67;;
14520;SDS011;7347;50.844;4.490;2023-04-24T09:11:26;5.47;;;1.60;;
14520;SDS011;7347;50.844;4.490;2023-04-24T09:13:53;4.70;;;1.77;;
14520;SDS011;7347;50.844;4.490;2023-04-24T09:16:21;3.30;;;1.60;;
14520;SDS011;7347;50.844;4.490;2023-04-24T09:18:49;4.27;;;1.60;;
14520;SDS011;7347;50.844;4.490;2023-04-24T09:21:17;5.43;;;1.30;;
14520;SDS011;7347;50.844;4.490;2023-04-24T09:23:47;5.23;;;1.50;;
14520;SDS011;7347;50.844;4.490;2023-04-24T09:26:24;6.27;;;2.00;;
14520;SDS011;7347;50.844;4.490;2023-04-24T09:28:53;4.20;;;1.33;;
14520;SDS011;7347;50.844;4.490;2023-04-24T09:31:20;3.90;;;1.80;;
14520;SDS011;7347;50.844;4.490;2023-04-24T09:33:53;7.20;;;1.53;;
14520;SDS011;7347;50.844;4.490;2023-04-24T09:36:27;2.50;;;1.33;;
14520;SDS011;7347;50.844;4.490;2023-04-24T09:38:57;2.37;;;1.30;;
14520;SDS011;7347;50.844;4.490;2023-04-24T09:41:24;3.17;;;1.40;;
14520;SDS011;7347;50.844;4.490;2023-04-24T09:43:53;1.87;;;1.23;;
14520;SDS011;7347;50.844;4.490;2023-04-24T09:46:21;7.03;;;1.53;;
14520;SDS011;7347;50.844;4.490;2023-04-24T09:48:55;3.87;;;1.70;;
14520;SDS011;7347;50.844;4.490;2023-04-24T09:51:33;3.13;;;1.30;;
14520;SDS011;7347;50.844;4.490;2023-04-24T09:54:02;2.17;;;1.20;;
14520;SDS011;7347;50.844;4.490;2023-04-24T09:56:32;2.10;;;1.30;;
14520;SDS011;7347;50.844;4.490;2023-04-24T09:59:05;3.60;;;1.50;;
14520;SDS011;7347;50.844;4.490;2023-04-24T10:01:33;6.13;;;1.60;;
14520;SDS011;7347;50.844;4.490;2023-04-24T10:04:00;4.33;;;1.53;;
14520;SDS011;7347;50.844;4.490;2023-04-24T10:06:34;4.80;;;1.67;;
14520;SDS011;7347;50.844;4.490;2023-04-24T10:09:02;4.83;;;1.70;;
14520;SDS011;7347;50.844;4.490;2023-04-24T10:11:30;2.63;;;1.20;;
14520;SDS011;7347;50.844;4.490;2023-04-24T10:13:57;2.73;;;1.10;;
14520;SDS011;7347;50.844;4.490;2023-04-24T10:16:24;2.33;;;1.23;;
14520;SDS011;7347;50.844;4.490;2023-04-24T10:18:53;1.87;;;1.07;;
14520;SDS011;7347;50.844;4.490;2023-04-24T10:21:21;3.47;;;1.37;;
14520;SDS011;7347;50.844;4.490;2023-04-24T10:23:50;2.67;;;1.50;;
14520;SDS011;7347;50.844;4.490;2023-04-24T10:26:17;3.70;;;1.60;;
14520;SDS011;7347;50.844;4.490;2023-04-24T10:28:45;2.17;;;1.30;;
14520;SDS011;7347;50.844;4.490;2023-04-24T10:31:12;2.97;;;1.40;;
14520;SDS011;7347;50.844;4.490;2023-04-24T10:33:40;2.47;;;1.47;;
14520;SDS011;7347;50.844;4.490;2023-04-24T10:36:08;3.07;;;1.40;;
14520;SDS011;7347;50.844;4.490;2023-04-24T10:38:38;2.17;;;1.20;;
14520;SDS011;7347;50.844;4.490;2023-04-24T10:41:08;7.03;;;1.43;;
14520;SDS011;7347;50.844;4.490;2023-04-24T10:43:41;2.23;;;0.97;;
14520;SDS011;7347;50.844;4.490;2023-04-24T10:46:08;5.23;;;1.77;;
14520;SDS011;7347;50.844;4.490;2023-04-24T10:48:36;5.80;;;1.70;;
14520;SDS011;7347;50.844;4.490;2023-04-24T10:51:11;4.27;;;1.20;;
14520;SDS011;7347;50.844;4.490;2023-04-24T10:53:39;1.53;;;1.40;;
14520;SDS011;7347;50.844;4.490;2023-04-24T10:56:06;4.07;;;1.67;;
14520;SDS011;7347;50.844;4.490;2023-04-24T10:58:36;3.93;;;1.47;;
14520;SDS011;7347;50.844;4.490;2023-04-24T11:01:05;3.63;;;2.23;;
14520;SDS011;7347;50.844;4.490;2023-04-24T11:03:33;3.13;;;1.30;;
14520;SDS011;7347;50.844;4.490;2023-04-24T11:06:01;2.23;;;1.43;;
14520;SDS011;7347;50.844;4.490;2023-04-24T11:08:30;3.17;;;1.53;;
14520;SDS011;7347;50.844;4.490;2023-04-24T11:11:07;5.43;;;1.50;;
14520;SDS011;7347;50.844;4.490;2023-04-24T11:16:32;3.67;;;1.40;;
14520;SDS011;7347;50.844;4.490;2023-04-24T11:19:00;5.43;;;1.70;;
14520;SDS011;7347;50.844;4.490;2023-04-24T11:21:32;3.07;;;1.80;;
14520;SDS011;7347;50.844;4.490;2023-04-24T11:26:53;4.87;;;1.90;;
14520;SDS011;7347;50.844;4.490;2023-04-24T11:29:21;4.00;;;1.73;;
14520;SDS011;7347;50.844;4.490;2023-04-24T11:31:49;4.00;;;1.70;;
14520;SDS011;7347;50.844;4.490;2023-04-24T11:34:16;3.27;;;1.70;;
14520;SDS011;7347;50.844;4.490;2023-04-24T11:36:44;3.50;;;1.40;;
14520;SDS011;7347;50.844;4.490;2023-04-24T11:39:13;3.93;;;1.50;;
14520;SDS011;7347;50.844;4.490;2023-04-24T11:41:40;2.53;;;1.53;;
14520;SDS011;7347;50.844;4.490;2023-04-24T11:44:09;3.83;;;1.47;;
14520;SDS011;7347;50.844;4.490;2023-04-24T11:46:36;2.43;;;1.57;;
14520;SDS011;7347;50.844;4.490;2023-04-24T11:49:05;3.50;;;1.60;;
14520;SDS011;7347;50.844;4.490;2023-04-24T11:51:32;3.30;;;1.50;;
14520;SDS011;7347;50.844;4.490;2023-04-24T11:54:00;3.33;;;1.80;;
14520;SDS011;7347;50.844;4.490;2023-04-24T11:56:27;3.37;;;1.73;;
14520;SDS011;7347;50.844;4.490;2023-04-24T11:58:54;2.83;;;1.60;;
14520;SDS011;7347;50.844;4.490;2023-04-24T12:01:23;2.97;;;1.83;;
14520;SDS011;7347;50.844;4.490;2023-04-24T12:03:50;5.43;;;1.70;;
14520;SDS011;7347;50.844;4.490;2023-04-24T12:06:25;2.97;;;1.50;;
14520;SDS011;7347;50.844;4.490;2023-04-24T12:08:52;2.57;;;1.70;;
14520;SDS011;7347;50.844;4.490;2023-04-24T12:11:20;2.53;;;1.87;;
14520;SDS011;7347;50.844;4.490;2023-04-24T12:13:47;2.10;;;1.83;;
14520;SDS011;7347;50.844;4.490;2023-04-24T12:16:14;5.17;;;2.00;;
14520;SDS011;7347;50.844;4.490;2023-04-24T12:18:45;2.87;;;1.63;;
14520;SDS011;7347;50.844;4.490;2023-04-24T12:21:16;3.60;;;2.00;;
14520;SDS011;7347;50.844;4.490;2023-04-24T12:23:44;3.90;;;1.70;;
14520;SDS011;7347;50.844;4.490;2023-04-24T12:26:11;5.17;;;2.13;;
14520;SDS011;7347;50.844;4.490;2023-04-24T12:28:38;3.47;;;1.50;;
14520;SDS011;7347;50.844;4.490;2023-04-24T12:31:06;4.07;;;2.20;;
14520;SDS011;7347;50.844;4.490;2023-04-24T12:33:34;2.23;;;1.63;;
14520;SDS011;7347;50.844;4.490;2023-04-24T12:36:03;2.87;;;1.50;;
14520;SDS011;7347;50.844;4.490;2023-04-24T12:38:30;5.63;;;2.00;;
14520;SDS011;7347;50.844;4.490;2023-04-24T12:41:06;4.13;;;1.73;;
14520;SDS011;7347;50.844;4.490;2023-04-24T12:43:33;2.97;;;1.90;;
14520;SDS011;7347;50.844;4.490;2023-04-24T12:46:01;1.97;;;1.33;;
14520;SDS011;7347;50.844;4.490;2023-04-24T12:48:28;1.40;;;1.27;;
14520;SDS011;7347;50.844;4.490;2023-04-24T12:50:56;2.60;;;1.60;;
14520;SDS011;7347;50.844;4.490;2023-04-24T12:53:27;2.83;;;1.47;;
14520;SDS011;7347;50.844;4.490;2023-04-24T12:55:56;2.77;;;1.50;;
14520;SDS011;7347;50.844;4.490;2023-04-24T12:58:23;2.60;;;1.50;;
14520;SDS011;7347;50.844;4.490;2023-04-24T13:00:50;2.13;;;1.77;;
14520;SDS011;7347;50.844;4.490;2023-04-24T13:03:17;2.20;;;1.37;;
14520;SDS011;7347;50.844;4.490;2023-04-24T13:05:45;1.77;;;1.20;;
14520;SDS011;7347;50.844;4.490;2023-04-24T13:08:11;1.53;;;1.30;;
14520;SDS011;7347;50.844;4.490;2023-04-24T13:10:40;2.17;;;1.40;;
14520;SDS011;7347;50.844;4.490;2023-04-24T13:13:07;1.37;;;1.20;;
14520;SDS011;7347;50.844;4.490;2023-04-24T13:15:35;2.63;;;1.57;;
14520;SDS011;7347;50.844;4.490;2023-04-24T13:18:02;4.90;;;1.40;;
14520;SDS011;7347;50.844;4.490;2023-04-24T13:20:29;1.47;;;1.17;;
14520;SDS011;7347;50.844;4.490;2023-04-24T13:22:56;2.87;;;1.40;;
14520;SDS011;7347;50.844;4.490;2023-04-24T13:25:23;2.33;;;1.23;;
14520;SDS011;7347;50.844;4.490;2023-04-24T13:27:51;2.37;;;1.33;;
14520;SDS011;7347;50.844;4.490;2023-04-24T13:30:18;2.53;;;1.57;;
14520;SDS011;7347;50.844;4.490;2023-04-24T13:32:45;3.23;;;1.40;;
14520;SDS011;7347;50.844;4.490;2023-04-24T13:35:12;5.57;;;1.30;;
14520;SDS011;7347;50.844;4.490;2023-04-24T13:37:39;2.53;;;1.13;;
14520;SDS011;7347;50.844;4.490;2023-04-24T13:40:07;6.43;;;1.97;;
14520;SDS011;7347;50.844;4.490;2023-04-24T13:42:34;7.77;;;2.93;;
14520;SDS011;7347;50.844;4.490;2023-04-24T13:45:03;4.70;;;1.63;;
14520;SDS011;7347;50.844;4.490;2023-04-24T13:47:30;1.67;;;1.07;;
14520;SDS011;7347;50.844;4.490;2023-04-24T13:49:57;5.70;;;1.10;;
14520;SDS011;7347;50.844;4.490;2023-04-24T13:52:24;2.00;;;1.23;;
14520;SDS011;7347;50.844;4.490;2023-04-24T13:54:51;2.53;;;1.13;;
14520;SDS011;7347;50.844;4.490;2023-04-24T13:57:18;3.53;;;2.03;;
14520;SDS011;7347;50.844;4.490;2023-04-24T13:59:44;2.83;;;1.20;;
14520;SDS011;7347;50.844;4.490;2023-04-24T14:02:13;10.53;;;2.73;;
14520;SDS011;7347;50.844;4.490;2023-04-24T14:04:40;5.60;;;1.47;;
14520;SDS011;7347;50.844;4.490;2023-04-24T14:07:06;3.90;;;1.80;;
14520;SDS011;7347;50.844;4.490;2023-04-24T14:09:34;1.50;;;0.93;;
14520;SDS011;7347;50.844;4.490;2023-04-24T14:12:01;2.70;;;1.60;;
14520;SDS011;7347;50.844;4.490;2023-04-24T14:14:28;3.07;;;1.53;;
14520;SDS011;7347;50.844;4.490;2023-04-24T14:16:56;4.23;;;1.83;;
14520;SDS011;7347;50.844;4.490;2023-04-24T14:19:24;7.17;;;3.10;;
14520;SDS011;7347;50.844;4.490;2023-04-24T14:21:51;8.10;;;2.97;;
14520;SDS011;7347;50.844;4.490;2023-04-24T14:24:18;2.07;;;0.90;;
14520;SDS011;7347;50.844;4.490;2023-04-24T14:26:45;16.47;;;5.50;;
14520;SDS011;7347;50.844;4.490;2023-04-24T14:29:12;2.27;;;1.20;;
14520;SDS011;7347;50.844;4.490;2023-04-24T14:31:40;3.43;;;0.97;;
14520;SDS011;7347;50.844;4.490;2023-04-24T14:34:07;4.53;;;1.13;;
14520;SDS011;7347;50.844;4.490;2023-04-24T14:36:35;2.00;;;0.87;;
14520;SDS011;7347;50.844;4.490;2023-04-24T14:39:02;1.90;;;0.80;;
14520;SDS011;7347;50.844;4.490;2023-04-24T14:41:31;3.70;;;1.13;;
14520;SDS011;7347;50.844;4.490;2023-04-24T14:44:00;0.77;;;0.77;;
14520;SDS011;7347;50.844;4.490;2023-04-24T14:46:27;2.50;;;1.00;;
14520;SDS011;7347;50.844;4.490;2023-04-24T14:48:55;1.30;;;0.73;;
14520;SDS011;7347;50.844;4.490;2023-04-24T14:51:22;2.73;;;0.90;;
14520;SDS011;7347;50.844;4.490;2023-04-24T14:53:51;1.10;;;0.70;;
14520;SDS011;7347;50.844;4.490;2023-04-24T14:56:18;1.03;;;0.60;;
14520;SDS011;7347;50.844;4.490;2023-04-24T14:58:45;1.50;;;0.83;;
14520;SDS011;7347;50.844;4.490;2023-04-24T15:01:12;1.47;;;0.80;;
14520;SDS011;7347;50.844;4.490;2023-04-24T15:03:39;1.33;;;0.67;;
14520;SDS011;7347;50.844;4.490;2023-04-24T15:06:06;1.43;;;0.73;;
14520;SDS011;7347;50.844;4.490;2023-04-24T15:08:33;1.77;;;1.30;;
14520;SDS011;7347;50.844;4.490;2023-04-24T15:11:01;1.83;;;0.80;;
14520;SDS011;7347;50.844;4.490;2023-04-24T15:13:28;3.30;;;1.00;;
14520;SDS011;7347;50.844;4.490;2023-04-24T15:15:55;1.53;;;0.73;;
14520;SDS011;7347;50.844;4.490;2023-04-24T15:18:22;1.00;;;0.70;;
14520;SDS011;7347;50.844;4.490;2023-04-24T15:20:49;5.27;;;0.70;;
14520;SDS011;7347;50.844;4.490;2023-04-24T15:23:15;4.23;;;2.00;;
14520;SDS011;7347;50.844;4.490;2023-04-24T15:25:42;2.70;;;0.70;;
14520;SDS011;7347;50.844;4.490;2023-04-24T15:28:11;1.40;;;0.60;;
14520;SDS011;7347;50.844;4.490;2023-04-24T15:30:38;1.30;;;0.70;;
14520;SDS011;7347;50.844;4.490;2023-04-24T15:33:06;1.20;;;0.60;;
14520;SDS011;7347;50.844;4.490;2023-04-24T15:35:33;1.93;;;0.67;;
14520;SDS011;7347;50.844;4.490;2023-04-24T15:38:00;4.03;;;0.83;;
14520;SDS011;7347;50.844;4.490;2023-04-24T15:40:28;1.10;;;0.60;;
14520;SDS011;7347;50.844;4.490;2023-04-24T15:42:55;4.20;;;0.80;;
14520;SDS011;7347;50.844;4.490;2023-04-24T15:45:24;1.83;;;0.60;;
14520;SDS011;7347;50.844;4.490;2023-04-24T15:47:51;2.30;;;0.70;;
14520;SDS011;7347;50.844;4.490;2023-04-24T15:50:18;1.07;;;0.50;;
14520;SDS011;7347;50.844;4.490;2023-04-24T15:52:46;2.53;;;0.90;;
14520;SDS011;7347;50.844;4.490;2023-04-24T15:55:13;1.03;;;0.70;;
14520;SDS011;7347;50.844;4.490;2023-04-24T15:57:40;2.83;;;0.60;;
14520;SDS011;7347;50.844;4.490;2023-04-24T16:00:08;3.40;;;0.90;;
14520;SDS011;7347;50.844;4.490;2023-04-24T16:02:37;1.07;;;0.37;;
14520;SDS011;7347;50.844;4.490;2023-04-24T16:05:05;1.57;;;0.40;;
14520;SDS011;7347;50.844;4.490;2023-04-24T16:07:32;1.67;;;0.70;;
14520;SDS011;7347;50.844;4.490;2023-04-24T16:09:59;1.30;;;0.70;;
14520;SDS011;7347;50.844;4.490;2023-04-24T16:12:26;0.60;;;0.43;;
14520;SDS011;7347;50.844;4.490;2023-04-24T16:14:53;0.90;;;0.60;;
14520;SDS011;7347;50.844;4.490;2023-04-24T16:17:20;2.27;;;0.77;;
14520;SDS011;7347;50.844;4.490;2023-04-24T16:19:49;2.27;;;0.80;;
14520;SDS011;7347;50.844;4.490;2023-04-24T16:22:16;1.07;;;0.80;;
14520;SDS011;7347;50.844;4.490;2023-04-24T16:24:43;1.17;;;0.80;;
14520;SDS011;7347;50.844;4.490;2023-04-24T16:27:12;3.00;;;0.90;;
14520;SDS011;7347;50.844;4.490;2023-04-24T16:29:39;1.37;;;0.70;;
14520;SDS011;7347;50.844;4.490;2023-04-24T16:32:07;1.57;;;0.80;;
14520;SDS011;7347;50.844;4.490;2023-04-24T16:34:34;2.27;;;0.90;;
14520;SDS011;7347;50.844;4.490;2023-04-24T16:37:03;1.70;;;1.00;;
14520;SDS011;7347;50.844;4.490;2023-04-24T16:39:30;0.77;;;0.70;;
14520;SDS011;7347;50.844;4.490;2023-04-24T16:41:57;2.57;;;0.90;;
14520;SDS011;7347;50.844;4.490;2023-04-24T16:44:24;1.50;;;1.07;;
14520;SDS011;7347;50.844;4.490;2023-04-24T16:46:51;1.73;;;0.70;;
14520;SDS011;7347;50.844;4.490;2023-04-24T16:49:17;2.77;;;1.20;;
14520;SDS011;7347;50.844;4.490;2023-04-24T16:51:44;0.87;;;0.67;;
14520;SDS011;7347;50.844;4.490;2023-04-24T16:54:13;0.90;;;0.70;;
14520;SDS011;7347;50.844;4.490;2023-04-24T16:56:39;1.30;;;0.77;;
14520;SDS011;7347;50.844;4.490;2023-04-24T16:59:06;2.33;;;0.90;;
14520;SDS011;7347;50.844;4.490;2023-04-24T17:01:33;1.63;;;0.90;;
14520;SDS011;7347;50.844;4.490;2023-04-24T17:04:00;5.00;;;1.00;;
14520;SDS011;7347;50.844;4.490;2023-04-24T17:06:27;3.30;;;1.17;;
14520;SDS011;7347;50.844;4.490;2023-04-24T17:08:55;2.20;;;1.10;;
14520;SDS011;7347;50.844;4.490;2023-04-24T17:11:25;2.67;;;1.23;;
14520;SDS011;7347;50.844;4.490;2023-04-24T17:13:52;3.13;;;1.23;;
14520;SDS011;7347;50.844;4.490;2023-04-24T17:16:19;1.87;;;1.27;;
14520;SDS011;7347;50.844;4.490;2023-04-24T17:18:46;1.30;;;0.70;;
14520;SDS011;7347;50.844;4.490;2023-04-24T17:21:14;1.80;;;1.00;;
14520;SDS011;7347;50.844;4.490;2023-04-24T17:23:41;1.70;;;0.80;;
14520;SDS011;7347;50.844;4.490;2023-04-24T17:26:08;4.57;;;1.20;;
14520;SDS011;7347;50.844;4.490;2023-04-24T17:28:36;1.47;;;0.87;;
14520;SDS011;7347;50.844;4.490;2023-04-24T17:31:04;3.57;;;1.20;;
14520;SDS011;7347;50.844;4.490;2023-04-24T17:33:31;2.60;;;1.23;;
14520;SDS011;7347;50.844;4.490;2023-04-24T17:35:58;4.97;;;1.20;;
14520;SDS011;7347;50.844;4.490;2023-04-24T17:38:26;4.10;;;1.50;;
14520;SDS011;7347;50.844;4.490;2023-04-24T17:40:53;4.43;;;2.80;;
14520;SDS011;7347;50.844;4.490;2023-04-24T17:43:20;2.63;;;1.57;;
14520;SDS011;7347;50.844;4.490;2023-04-24T17:45:50;4.87;;;2.70;;
14520;SDS011;7347;50.844;4.490;2023-04-24T17:48:19;2.63;;;1.60;;
14520;SDS011;7347;50.844;4.490;2023-04-24T17:50:46;3.37;;;1.43;;
14520;SDS011;7347;50.844;4.490;2023-04-24T17:53:14;5.37;;;0.90;;
14520;SDS011;7347;50.844;4.490;2023-04-24T17:55:42;2.93;;;1.50;;
14520;SDS011;7347;50.844;4.490;2023-04-24T17:58:10;2.57;;;1.17;;
14520;SDS011;7347;50.844;4.490;2023-04-24T18:00:37;2.33;;;1.20;;
14520;SDS011;7347;50.844;4.490;2023-04-24T18:03:06;4.53;;;1.03;;
14520;SDS011;7347;50.844;4.490;2023-04-24T18:05:34;1.87;;;1.00;;
14520;SDS011;7347;50.844;4.490;2023-04-24T18:08:02;2.53;;;0.90;;
14520;SDS011;7347;50.844;4.490;2023-04-24T18:10:30;3.57;;;1.17;;
14520;SDS011;7347;50.844;4.490;2023-04-24T18:12:59;2.07;;;1.10;;
14520;SDS011;7347;50.844;4.490;2023-04-24T18:15:26;3.77;;;0.90;;
14520;SDS011;7347;50.844;4.490;2023-04-24T18:17:53;2.30;;;0.90;;
14520;SDS011;7347;50.844;4.490;2023-04-24T18:20:22;1.77;;;1.10;;
14520;SDS011;7347;50.844;4.490;2023-04-24T18:22:49;3.10;;;0.90;;
14520;SDS011;7347;50.844;4.490;2023-04-24T18:25:15;2.30;;;1.00;;
14520;SDS011;7347;50.844;4.490;2023-04-24T18:27:47;1.63;;;0.80;;
14520;SDS011;7347;50.844;4.490;2023-04-24T18:30:14;0.80;;;0.67;;
14520;SDS011;7347;50.844;4.490;2023-04-24T18:32:41;1.50;;;0.87;;
14520;SDS011;7347;50.844;4.490;2023-04-24T18:35:08;1.43;;;0.90;;
14520;SDS011;7347;50.844;4.490;2023-04-24T18:37:37;3.17;;;1.10;;
14520;SDS011;7347;50.844;4.490;2023-04-24T18:40:05;1.83;;;0.90;;
14520;SDS011;7347;50.844;4.490;2023-04-24T18:42:33;2.30;;;0.80;;
14520;SDS011;7347;50.844;4.490;2023-04-24T18:45:00;2.97;;;0.93;;
14520;SDS011;7347;50.844;4.490;2023-04-24T18:47:28;2.37;;;1.07;;
14520;SDS011;7347;50.844;4.490;2023-04-24T18:49:55;5.23;;;1.10;;
14520;SDS011;7347;50.844;4.490;2023-04-24T18:52:22;2.60;;;1.27;;
14520;SDS011;7347;50.844;4.490;2023-04-24T18:54:51;5.37;;;1.30;;
14520;SDS011;7347;50.844;4.490;2023-04-24T18:57:18;3.40;;;1.23;;
14520;SDS011;7347;50.844;4.490;2023-04-24T18:59:45;1.80;;;1.00;;
14520;SDS011;7347;50.844;4.490;2023-04-24T19:02:12;2.33;;;1.23;;
14520;SDS011;7347;50.844;4.490;2023-04-24T19:04:39;4.70;;;1.03;;
14520;SDS011;7347;50.844;4.490;2023-04-24T19:07:05;3.13;;;1.30;;
14520;SDS011;7347;50.844;4.490;2023-04-24T19:09:32;4.97;;;1.30;;
14520;SDS011;7347;50.844;4.490;2023-04-24T19:12:01;3.47;;;1.20;;
14520;SDS011;7347;50.844;4.490;2023-04-24T19:14:28;2.63;;;1.53;;
14520;SDS011;7347;50.844;4.490;2023-04-24T19:16:55;2.00;;;1.20;;
14520;SDS011;7347;50.844;4.490;2023-04-24T19:19:22;4.73;;;1.20;;
14520;SDS011;7347;50.844;4.490;2023-04-24T19:21:50;2.63;;;1.43;;
14520;SDS011;7347;50.844;4.490;2023-04-24T19:24:17;5.30;;;1.90;;
14520;SDS011;7347;50.844;4.490;2023-04-24T19:26:45;6.53;;;1.50;;
14520;SDS011;7347;50.844;4.490;2023-04-24T19:29:13;4.80;;;1.80;;
14520;SDS011;7347;50.844;4.490;2023-04-24T19:31:40;7.57;;;2.70;;
14520;SDS011;7347;50.844;4.490;2023-04-24T19:34:07;4.00;;;1.30;;
14520;SDS011;7347;50.844;4.490;2023-04-24T19:36:34;1.67;;;1.23;;
14520;SDS011;7347;50.844;4.490;2023-04-24T19:39:01;9.43;;;1.60;;
14520;SDS011;7347;50.844;4.490;2023-04-24T19:41:28;4.40;;;1.70;;
14520;SDS011;7347;50.844;4.490;2023-04-24T19:43:55;3.73;;;1.80;;
14520;SDS011;7347;50.844;4.490;2023-04-24T19:46:23;2.87;;;1.83;;
14520;SDS011;7347;50.844;4.490;2023-04-24T19:48:50;4.80;;;1.80;;
14520;SDS011;7347;50.844;4.490;2023-04-24T19:51:17;6.70;;;1.60;;
14520;SDS011;7347;50.844;4.490;2023-04-24T19:53:44;4.77;;;1.67;;
14520;SDS011;7347;50.844;4.490;2023-04-24T19:56:11;4.77;;;1.53;;
14520;SDS011;7347;50.844;4.490;2023-04-24T19:58:37;2.50;;;1.47;;
14520;SDS011;7347;50.844;4.490;2023-04-24T20:01:04;3.27;;;1.50;;
14520;SDS011;7347;50.844;4.490;2023-04-24T20:03:33;2.73;;;1.50;;
14520;SDS011;7347;50.844;4.490;2023-04-24T20:05:59;3.93;;;1.40;;
14520;SDS011;7347;50.844;4.490;2023-04-24T20:08:26;3.07;;;1.50;;
14520;SDS011;7347;50.844;4.490;2023-04-24T20:10:54;6.37;;;1.50;;
14520;SDS011;7347;50.844;4.490;2023-04-24T20:13:22;3.63;;;1.73;;
14520;SDS011;7347;50.844;4.490;2023-04-24T20:15:49;5.30;;;1.93;;
14520;SDS011;7347;50.844;4.490;2023-04-24T20:18:16;4.13;;;1.70;;
14520;SDS011;7347;50.844;4.490;2023-04-24T20:20:46;6.97;;;1.57;;
14520;SDS011;7347;50.844;4.490;2023-04-24T20:23:13;1.93;;;1.30;;
14520;SDS011;7347;50.844;4.490;2023-04-24T20:25:40;3.03;;;1.10;;
14520;SDS011;7347;50.844;4.490;2023-04-24T20:28:07;4.97;;;1.40;;
14520;SDS011;7347;50.844;4.490;2023-04-24T20:30:34;3.50;;;1.37;;
14520;SDS011;7347;50.844;4.490;2023-04-24T20:33:02;5.40;;;1.50;;
14520;SDS011;7347;50.844;4.490;2023-04-24T20:35:29;2.20;;;1.27;;
14520;SDS011;7347;50.844;4.490;2023-04-24T20:37:57;3.97;;;1.30;;
14520;SDS011;7347;50.844;4.490;2023-04-24T20:40:26;3.17;;;1.33;;
14520;SDS011;7347;50.844;4.490;2023-04-24T20:42:53;6.73;;;1.93;;
14520;SDS011;7347;50.844;4.490;2023-04-24T20:45:21;1.80;;;1.37;;
14520;SDS011;7347;50.844;4.490;2023-04-24T20:47:49;6.50;;;2.27;;
14520;SDS011;7347;50.844;4.490;2023-04-24T20:50:16;3.20;;;1.33;;
14520;SDS011;7347;50.844;4.490;2023-04-24T20:52:43;3.60;;;1.50;;
14520;SDS011;7347;50.844;4.490;2023-04-24T20:55:11;2.90;;;1.50;;
14520;SDS011;7347;50.844;4.490;2023-04-24T20:57:39;5.63;;;1.60;;
14520;SDS011;7347;50.844;4.490;2023-04-24T21:00:06;4.97;;;1.87;;
14520;SDS011;7347;50.844;4.490;2023-04-24T21:02:34;4.27;;;1.63;;
14520;SDS011;7347;50.844;4.490;2023-04-24T21:05:01;3.03;;;1.50;;
14520;SDS011;7347;50.844;4.490;2023-04-24T21:07:29;3.87;;;1.50;;
14520;SDS011;7347;50.844;4.490;2023-04-24T21:09:56;3.37;;;1.50;;
14520;SDS011;7347;50.844;4.490;2023-04-24T21:12:24;3.60;;;1.50;;
14520;SDS011;7347;50.844;4.490;2023-04-24T21:14:51;3.73;;;2.27;;
14520;SDS011;7347;50.844;4.490;2023-04-24T21:17:18;3.90;;;1.43;;
14520;SDS011;7347;50.844;4.490;2023-04-24T21:19:45;4.27;;;1.50;;
14520;SDS011;7347;50.844;4.490;2023-04-24T21:22:12;2.83;;;1.40;;
14520;SDS011;7347;50.844;4.490;2023-04-24T21:24:38;6.33;;;1.43;;
14520;SDS011;7347;50.844;4.490;2023-04-24T21:27:05;3.53;;;1.30;;
14520;SDS011;7347;50.844;4.490;2023-04-24T21:29:34;4.43;;;1.97;;
14520;SDS011;7347;50.844;4.490;2023-04-24T21:32:01;5.17;;;1.20;;
14520;SDS011;7347;50.844;4.490;2023-04-24T21:34:28;2.70;;;1.43;;
14520;SDS011;7347;50.844;4.490;2023-04-24T21:36:55;4.03;;;1.30;;
14520;SDS011;7347;50.844;4.490;2023-04-24T21:39:22;4.33;;;1.33;;
14520;SDS011;7347;50.844;4.490;2023-04-24T21:41:49;5.73;;;1.67;;
14520;SDS011;7347;50.844;4.490;2023-04-24T21:44:16;5.33;;;1.20;;
